Time;durP1;ratioP1;P1;durP2;ratioP2;P2;SDS_P1;SDS_P2;PMS_P1;PMS_P2;Temp;Humidity;BMP_temperature;BMP_pressure;BME280_temperature;BME280_humidity;BME280_pressure;Samples;Min_cycle;Max_cycle;Signal;HPM_P1;HPM_P2
2022/03/04 00:00:15;;;;;;;28.75;15.23;;;0.50;99.90;;;;;;5081098;28;20043;-78
2022/03/04 00:02:40;;;;;;;29.55;16.38;;;0.30;99.90;;;;;;5072057;28;20032;-79
2022/03/04 00:05:06;;;;;;;36.50;17.88;;;0.20;99.90;;;;;;5077694;27;20391;-78
2022/03/04 00:07:32;;;;;;;31.70;15.85;;;0.20;99.90;;;;;;5080073;28;20122;-78
2022/03/04 00:09:57;;;;;;;28.60;14.43;;;0.40;99.90;;;;;;5094793;28;20368;-80
2022/03/04 00:12:23;;;;;;;31.13;15.52;;;0.60;99.90;;;;;;5096219;27;20032;-78
2022/03/04 00:14:48;;;;;;;31.45;15.45;;;0.50;99.90;;;;;;5080208;28;20035;-78
2022/03/04 00:17:15;;;;;;;31.40;17.27;;;0.30;99.90;;;;;;5080616;28;20040;-79
2022/03/04 00:19:41;;;;;;;29.42;16.33;;;0.20;99.90;;;;;;5072422;27;20031;-79
2022/03/04 00:22:06;;;;;;;25.00;14.30;;;0.20;99.90;;;;;;5063483;27;20127;-78
2022/03/04 00:24:32;;;;;;;25.90;15.63;;;0.30;99.90;;;;;;5094709;28;20023;-78
2022/03/04 00:26:57;;;;;;;26.33;15.98;;;0.20;99.90;;;;;;5082109;27;20032;-80
2022/03/04 00:29:23;;;;;;;29.80;16.73;;;0.00;99.90;;;;;;5081413;27;20067;-80
2022/03/04 00:31:49;;;;;;;30.95;16.42;;;-0.20;99.90;;;;;;5092351;28;20068;-79
2022/03/04 00:34:14;;;;;;;34.35;17.02;;;-0.20;99.90;;;;;;5093814;27;20073;-78
2022/03/04 00:36:40;;;;;;;31.33;16.98;;;-0.30;99.90;;;;;;5082441;27;20028;-79
2022/03/04 00:39:10;;;;;;;28.58;15.88;;;-0.30;99.90;;;;;;5082759;28;20035;-79
2022/03/04 00:41:35;;;;;;;30.90;15.85;;;-0.30;99.90;;;;;;5083983;28;20394;-79
2022/03/04 00:44:01;;;;;;;31.15;15.77;;;-0.40;99.90;;;;;;5073021;28;20028;-78
2022/03/04 00:46:27;;;;;;;30.92;15.38;;;-0.40;99.90;;;;;;5067857;27;20046;-78
2022/03/04 00:48:52;;;;;;;27.67;15.50;;;-0.50;99.90;;;;;;5062283;27;20038;-79
2022/03/04 00:51:18;;;;;;;32.47;17.13;;;-0.50;99.90;;;;;;5079009;27;20114;-79
2022/03/04 00:53:44;;;;;;;29.58;15.80;;;-0.60;99.90;;;;;;5079815;27;20059;-79
2022/03/04 00:56:10;;;;;;;33.67;16.98;;;-0.60;99.90;;;;;;5080190;28;20023;-79
2022/03/04 00:58:36;;;;;;;29.95;16.73;;;-0.50;99.90;;;;;;5085246;28;20515;-78
2022/03/04 01:01:02;;;;;;;31.77;17.15;;;-0.60;99.90;;;;;;5096666;27;20058;-79
2022/03/04 01:03:28;;;;;;;34.90;18.35;;;-0.60;99.90;;;;;;5080247;27;20454;-78
2022/03/04 01:05:54;;;;;;;30.17;14.93;;;-0.70;99.90;;;;;;5079022;28;20052;-79
2022/03/04 01:08:19;;;;;;;30.52;14.85;;;-0.80;99.90;;;;;;5079302;28;20032;-78
2022/03/04 01:10:45;;;;;;;29.80;16.00;;;-0.80;99.90;;;;;;5092837;27;20514;-79
2022/03/04 01:13:11;;;;;;;33.38;16.63;;;-0.80;99.90;;;;;;5076183;28;20432;-78
2022/03/04 01:15:36;;;;;;;30.38;15.65;;;-0.90;99.90;;;;;;5069391;28;20481;-78
2022/03/04 01:18:02;;;;;;;35.50;16.05;;;-0.90;99.90;;;;;;5090071;28;20036;-79
2022/03/04 01:20:29;;;;;;;28.55;15.88;;;-0.90;99.90;;;;;;5075942;28;20066;-79
2022/03/04 01:22:54;;;;;;;30.98;15.95;;;-0.90;99.90;;;;;;5062647;28;20024;-79
2022/03/04 01:25:20;;;;;;;31.23;16.40;;;-1.00;99.90;;;;;;5071869;28;20391;-79
2022/03/04 01:27:45;;;;;;;30.70;15.52;;;-1.00;99.90;;;;;;5085751;28;20386;-79
2022/03/04 01:30:11;;;;;;;34.65;16.20;;;-1.00;99.90;;;;;;5095516;28;20023;-79
2022/03/04 01:32:37;;;;;;;29.95;14.85;;;-1.10;99.90;;;;;;5080192;28;20047;-78
2022/03/04 01:35:03;;;;;;;27.75;16.17;;;-1.10;99.90;;;;;;5081643;28;20028;-79
2022/03/04 01:37:29;;;;;;;30.50;15.82;;;-1.20;99.90;;;;;;5065507;28;20031;-79
2022/03/04 01:39:55;;;;;;;35.22;17.00;;;-1.20;99.90;;;;;;5082009;27;20034;-79
2022/03/04 01:42:20;;;;;;;32.13;17.80;;;-1.30;99.90;;;;;;5089684;28;20058;-79
2022/03/04 01:44:46;;;;;;;34.65;18.83;;;-1.20;99.90;;;;;;5079096;28;20024;-79
2022/03/04 01:47:13;;;;;;;33.75;17.75;;;-1.20;99.90;;;;;;5077321;28;20040;-79
2022/03/04 01:49:40;;;;;;;31.95;17.30;;;-1.30;99.90;;;;;;5082891;28;20036;-79
2022/03/04 01:52:06;;;;;;;35.03;17.48;;;-1.30;99.90;;;;;;5092946;28;20024;-78
2022/03/04 01:54:32;;;;;;;29.88;16.75;;;-1.40;99.90;;;;;;5095121;27;20510;-79
2022/03/04 01:56:57;;;;;;;36.25;18.02;;;-1.40;99.90;;;;;;5087601;28;20040;-80
2022/03/04 01:59:26;;;;;;;32.85;18.15;;;-1.50;99.90;;;;;;5085637;27;20036;-79
2022/03/04 02:01:52;;;;;;;31.85;18.13;;;-1.40;99.90;;;;;;5065729;27;20047;-79
2022/03/04 02:04:21;;;;;;;36.88;17.92;;;-1.40;99.90;;;;;;5086720;27;20510;-79
2022/03/04 02:06:48;;;;;;;37.38;17.55;;;-1.40;99.90;;;;;;5073685;27;20028;-79
2022/03/04 02:09:14;;;;;;;31.98;16.92;;;-1.40;99.90;;;;;;5097568;28;20395;-79
2022/03/04 02:11:43;;;;;;;36.58;18.05;;;-1.50;99.90;;;;;;5068054;28;20083;-79
2022/03/04 02:14:09;;;;;;;35.65;17.58;;;-1.50;99.90;;;;;;5083677;28;20123;-79
2022/03/04 02:16:41;;;;;;;33.92;17.60;;;-1.60;99.90;;;;;;5067654;28;20032;-79
2022/03/04 02:19:06;;;;;;;33.10;17.80;;;-1.50;99.90;;;;;;5082913;28;20479;-78
2022/03/04 02:21:32;;;;;;;36.08;19.15;;;-1.50;99.90;;;;;;5077535;27;20032;-79
2022/03/04 02:23:57;;;;;;;30.98;16.88;;;-1.50;99.90;;;;;;5076644;28;20039;-79
2022/03/04 02:26:23;;;;;;;30.73;17.67;;;-1.40;99.90;;;;;;5096013;27;20039;-81
2022/03/04 02:28:50;;;;;;;32.85;17.98;;;-1.40;99.90;;;;;;5086258;28;20031;-79
2022/03/04 02:31:16;;;;;;;36.95;18.63;;;-1.50;99.90;;;;;;5078180;28;20046;-79
2022/03/04 02:33:42;;;;;;;34.13;16.85;;;-1.50;99.90;;;;;;5070892;28;20024;-79
2022/03/04 02:36:07;;;;;;;32.13;17.65;;;-1.40;99.90;;;;;;5078233;28;20406;-79
2022/03/04 02:38:40;;;;;;;32.00;17.23;;;-1.40;99.90;;;;;;5080360;27;20104;-79
2022/03/04 02:41:06;;;;;;;28.80;16.77;;;-1.40;99.90;;;;;;5083805;27;20110;-79
2022/03/04 02:43:32;;;;;;;36.15;17.65;;;-1.50;99.90;;;;;;5078153;27;20477;-79
2022/03/04 02:45:58;;;;;;;38.20;18.15;;;-1.50;99.90;;;;;;5092701;28;20030;-81
2022/03/04 02:48:23;;;;;;;29.25;17.13;;;-1.60;99.90;;;;;;5095011;28;20437;-79
2022/03/04 02:50:49;;;;;;;32.33;17.73;;;-1.70;99.90;;;;;;5102447;27;20032;-80
2022/03/04 02:53:21;;;;;;;36.03;17.35;;;-1.60;99.90;;;;;;5099101;27;20029;-80
2022/03/04 02:55:47;;;;;;;31.75;17.85;;;-1.70;99.90;;;;;;5092121;27;20035;-80
2022/03/04 02:58:12;;;;;;;31.17;17.90;;;-1.80;99.90;;;;;;5081569;28;20047;-79
2022/03/04 03:00:38;;;;;;;31.48;17.73;;;-1.90;99.90;;;;;;5072370;28;20028;-79
2022/03/04 03:03:03;;;;;;;33.42;17.15;;;-1.90;99.90;;;;;;5097248;28;20035;-79
2022/03/04 03:05:29;;;;;;;32.92;17.75;;;-2.00;99.90;;;;;;5092091;27;20427;-79
2022/03/04 03:07:55;;;;;;;36.38;17.67;;;-2.20;99.90;;;;;;5102634;28;20032;-80
2022/03/04 03:10:20;;;;;;;34.15;19.55;;;-2.20;99.90;;;;;;5093803;28;20495;-79
2022/03/04 03:12:46;;;;;;;35.45;18.95;;;-2.30;99.90;;;;;;5097515;27;20127;-79
2022/03/04 03:15:12;;;;;;;34.72;17.85;;;-2.30;99.90;;;;;;5101850;28;20153;-79
2022/03/04 03:17:37;;;;;;;43.35;18.83;;;-2.10;99.90;;;;;;5069697;28;20081;-78
2022/03/04 03:20:04;;;;;;;35.72;18.58;;;-2.10;99.90;;;;;;5082713;27;20031;-78
2022/03/04 03:22:29;;;;;;;32.35;17.73;;;-2.20;99.90;;;;;;5081203;27;20061;-79
2022/03/04 03:24:55;;;;;;;34.47;17.77;;;-2.30;99.90;;;;;;5094889;28;20472;-80
2022/03/04 03:27:21;;;;;;;34.05;17.45;;;-2.30;99.90;;;;;;5076621;27;20040;-79
2022/03/04 03:29:46;;;;;;;36.92;17.90;;;-2.10;99.90;;;;;;5080030;28;20035;-79
2022/03/04 03:32:12;;;;;;;37.22;18.67;;;-2.10;99.90;;;;;;5067135;28;20038;-79
2022/03/04 03:34:38;;;;;;;32.90;17.23;;;-2.10;99.90;;;;;;5074281;28;20028;-83
2022/03/04 03:37:04;;;;;;;34.00;18.83;;;-2.30;99.90;;;;;;5077493;28;20036;-84
2022/03/04 03:39:30;;;;;;;35.78;17.48;;;-2.30;99.90;;;;;;5100085;27;20027;-84
2022/03/04 03:41:55;;;;;;;37.03;17.33;;;-2.20;99.90;;;;;;5079529;27;20056;-84
2022/03/04 03:44:21;;;;;;;36.95;19.38;;;-2.20;99.90;;;;;;5092592;28;20047;-83
2022/03/04 03:46:46;;;;;;;30.70;17.75;;;-2.20;99.90;;;;;;5074030;27;20027;-84
2022/03/04 03:49:12;;;;;;;33.08;17.60;;;-2.40;99.90;;;;;;5094045;28;20047;-84
2022/03/04 03:51:38;;;;;;;33.53;16.95;;;-2.40;99.90;;;;;;5070360;28;20031;-83
2022/03/04 03:54:04;;;;;;;35.72;18.15;;;-2.20;99.90;;;;;;5081810;28;20024;-84
2022/03/04 03:56:30;;;;;;;33.97;17.90;;;-2.20;99.90;;;;;;5075554;27;20081;-84
2022/03/04 03:58:55;;;;;;;36.00;17.92;;;-2.20;99.90;;;;;;5066060;28;20035;-84
2022/03/04 04:01:21;;;;;;;32.40;17.38;;;-2.20;99.90;;;;;;5082320;27;20034;-84
2022/03/04 04:03:47;;;;;;;33.53;18.05;;;-2.30;99.90;;;;;;5081044;28;20490;-84
2022/03/04 04:06:13;;;;;;;37.65;19.02;;;-2.30;99.90;;;;;;5096912;27;20035;-83
2022/03/04 04:08:38;;;;;;;35.22;17.73;;;-2.30;99.90;;;;;;5081481;28;20035;-84
2022/03/04 04:11:04;;;;;;;34.60;17.27;;;-2.40;99.90;;;;;;5094651;28;20044;-84
2022/03/04 04:13:30;;;;;;;32.53;17.70;;;-2.40;99.90;;;;;;5095627;28;20020;-84
2022/03/04 04:15:55;;;;;;;35.42;18.67;;;-2.40;99.90;;;;;;5080007;28;20028;-83
2022/03/04 04:18:21;;;;;;;38.97;18.25;;;-2.30;99.90;;;;;;5075875;28;20103;-83
2022/03/04 04:20:46;;;;;;;38.97;18.10;;;-2.40;99.90;;;;;;5064397;28;20035;-84
2022/03/04 04:23:12;;;;;;;38.72;17.63;;;-2.40;99.90;;;;;;5096990;27;20386;-84
2022/03/04 04:25:37;;;;;;;38.17;19.48;;;-2.30;99.90;;;;;;5071810;27;20466;-83
2022/03/04 04:28:04;;;;;;;36.20;18.73;;;-2.40;99.90;;;;;;5094393;27;20016;-83
2022/03/04 04:30:30;;;;;;;34.53;17.67;;;-2.50;99.90;;;;;;5079626;27;20391;-84
2022/03/04 04:32:56;;;;;;;33.50;18.70;;;-2.40;99.90;;;;;;5063968;28;20021;-83
2022/03/04 04:35:21;;;;;;;33.63;17.38;;;-2.50;99.90;;;;;;5096740;27;20537;-83
2022/03/04 04:37:47;;;;;;;37.90;19.40;;;-2.50;99.90;;;;;;5081010;28;20107;-83
2022/03/04 04:40:12;;;;;;;35.35;17.55;;;-2.50;99.90;;;;;;5078206;27;20152;-84
2022/03/04 04:42:38;;;;;;;35.03;18.08;;;-2.40;99.90;;;;;;5081218;27;20076;-84
2022/03/04 04:45:04;;;;;;;34.15;17.55;;;-2.40;99.90;;;;;;5090043;28;20031;-83
2022/03/04 04:47:30;;;;;;;36.40;17.40;;;-2.40;99.90;;;;;;5095893;27;20028;-83
2022/03/04 04:49:55;;;;;;;40.65;19.15;;;-2.50;99.90;;;;;;5099074;28;20028;-83
2022/03/04 04:52:25;;;;;;;49.65;18.75;;;-2.60;99.90;;;;;;5079904;28;20038;-80
2022/03/04 04:54:51;;;;;;;35.70;19.35;;;-2.70;99.90;;;;;;5098111;28;20103;-79
2022/03/04 04:57:16;;;;;;;37.03;18.13;;;-2.70;99.90;;;;;;5065818;28;20119;-79
2022/03/04 04:59:43;;;;;;;35.42;18.70;;;-2.80;99.90;;;;;;5085338;28;20093;-80
2022/03/04 05:02:08;;;;;;;40.38;19.00;;;-2.80;99.90;;;;;;5098301;28;20087;-80
2022/03/04 05:04:34;;;;;;;40.75;19.38;;;-2.70;99.90;;;;;;5071482;28;20054;-79
2022/03/04 05:07:01;;;;;;;39.42;17.58;;;-2.70;99.90;;;;;;5084656;27;20031;-80
2022/03/04 05:09:26;;;;;;;36.10;18.17;;;-2.70;99.90;;;;;;5098098;27;20028;-80
2022/03/04 05:11:52;;;;;;;34.83;17.80;;;-2.80;99.90;;;;;;5082660;28;20036;-80
2022/03/04 05:14:17;;;;;;;37.60;17.83;;;-2.80;99.90;;;;;;5080181;28;20944;-80
2022/03/04 05:16:43;;;;;;;38.85;18.05;;;-2.90;99.90;;;;;;5082989;27;20126;-80
2022/03/04 05:19:08;;;;;;;38.63;19.08;;;-2.90;99.90;;;;;;5085519;28;20044;-82
2022/03/04 05:21:34;;;;;;;40.70;18.73;;;-2.90;99.90;;;;;;5068354;27;20119;-80
2022/03/04 05:24:00;;;;;;;34.58;17.42;;;-2.90;99.90;;;;;;5064131;28;20035;-80
2022/03/04 05:26:36;;;;;;;37.45;17.17;;;-3.00;99.90;;;;;;5081347;27;20035;-79
2022/03/04 05:29:03;;;;;;;39.28;18.88;;;-3.10;99.90;;;;;;5081931;28;20032;-80
2022/03/04 05:31:29;;;;;;;37.03;18.67;;;-3.00;99.90;;;;;;5076229;27;20042;-79
2022/03/04 05:33:54;;;;;;;37.08;17.50;;;-3.00;99.90;;;;;;5080814;28;20487;-79
2022/03/04 05:36:20;;;;;;;38.30;19.75;;;-3.00;99.90;;;;;;5083294;28;20055;-79
2022/03/04 05:38:47;;;;;;;36.40;17.70;;;-3.00;99.90;;;;;;5084047;28;20043;-79
2022/03/04 05:41:13;;;;;;;38.53;18.45;;;-3.10;99.90;;;;;;5095405;27;20043;-82
2022/03/04 05:43:39;;;;;;;40.45;18.73;;;-3.10;99.90;;;;;;5069222;28;20034;-81
2022/03/04 05:46:05;;;;;;;41.65;19.27;;;-3.10;99.90;;;;;;5073739;27;20421;-80
2022/03/04 05:48:30;;;;;;;34.08;17.40;;;-3.20;99.90;;;;;;5081751;28;20028;-80
2022/03/04 05:50:56;;;;;;;40.53;19.58;;;-3.10;99.90;;;;;;5088436;28;20024;-80
2022/03/04 05:53:21;;;;;;;42.40;18.73;;;-3.10;99.90;;;;;;5074004;28;20056;-81
2022/03/04 05:55:47;;;;;;;36.15;19.13;;;-3.10;99.90;;;;;;5069106;27;20024;-80
2022/03/04 05:58:19;;;;;;;39.03;18.80;;;-3.20;99.90;;;;;;5082085;28;20107;-81
2022/03/04 06:00:44;;;;;;;39.28;18.80;;;-3.20;99.90;;;;;;5080954;28;20039;-80
2022/03/04 06:03:11;;;;;;;42.78;20.25;;;-3.20;99.90;;;;;;5078158;27;20023;-81
2022/03/04 06:05:36;;;;;;;43.42;19.95;;;-3.10;99.90;;;;;;5095769;27;20149;-80
2022/03/04 06:08:02;;;;;;;39.45;18.65;;;-3.00;99.90;;;;;;5081500;28;20457;-81
2022/03/04 06:10:28;;;;;;;39.95;20.45;;;-3.00;99.90;;;;;;5077148;27;20508;-80
2022/03/04 06:12:53;;;;;;;38.63;19.30;;;-2.90;99.90;;;;;;5082582;28;20025;-80
2022/03/04 06:15:19;;;;;;;41.58;18.48;;;-3.00;99.90;;;;;;5089793;28;20020;-82
2022/03/04 06:17:48;;;;;;;37.38;19.02;;;-3.10;99.90;;;;;;5096162;27;20065;-80
2022/03/04 06:20:14;;;;;;;36.47;18.95;;;-3.10;99.90;;;;;;5097015;27;20828;-81
2022/03/04 06:22:41;;;;;;;43.13;18.58;;;-3.10;99.90;;;;;;5063506;27;20043;-81
2022/03/04 06:25:07;;;;;;;36.95;18.20;;;-3.20;99.90;;;;;;5079001;27;20024;-80
2022/03/04 06:27:32;;;;;;;39.40;19.52;;;-3.10;99.90;;;;;;5064246;28;20027;-80
2022/03/04 06:29:58;;;;;;;40.13;18.58;;;-3.10;99.90;;;;;;5086130;28;20020;-80
2022/03/04 06:32:23;;;;;;;35.88;18.13;;;-3.20;99.90;;;;;;5075082;28;20034;-79
2022/03/04 06:34:49;;;;;;;44.30;19.05;;;-3.20;99.90;;;;;;5077740;27;20044;-81
2022/03/04 06:37:14;;;;;;;35.83;17.95;;;-3.20;99.90;;;;;;5093760;28;21630;-80
2022/03/04 06:39:40;;;;;;;34.40;18.70;;;-3.20;99.90;;;;;;5069859;28;20051;-78
2022/03/04 06:42:06;;;;;;;38.20;20.13;;;-3.10;99.90;;;;;;5063755;28;20031;-79
2022/03/04 06:44:32;;;;;;;42.55;19.27;;;-3.10;99.90;;;;;;5101109;28;20099;-79
2022/03/04 06:46:58;;;;;;;47.72;20.92;;;-3.10;99.90;;;;;;5100862;28;20032;-79
2022/03/04 06:49:24;;;;;;;41.47;21.15;;;-3.00;99.90;;;;;;5081261;28;20041;-79
2022/03/04 06:51:49;;;;;;;42.65;21.30;;;-3.10;99.90;;;;;;5078379;28;20123;-79
2022/03/04 06:54:15;;;;;;;39.50;19.38;;;-3.00;99.90;;;;;;5100448;28;20047;-79
2022/03/04 06:56:40;;;;;;;43.97;20.52;;;-3.00;99.90;;;;;;5073508;28;20148;-79
2022/03/04 06:59:06;;;;;;;43.15;20.30;;;-2.80;99.90;;;;;;5085987;27;20031;-78
2022/03/04 07:01:31;;;;;;;39.20;18.65;;;-2.80;99.90;;;;;;5081834;27;20031;-80
2022/03/04 07:03:57;;;;;;;37.05;17.67;;;-2.60;99.90;;;;;;5101826;28;20039;-80
2022/03/04 07:06:22;;;;;;;36.58;16.83;;;-2.60;99.90;;;;;;5094422;28;20482;-80
2022/03/04 07:08:48;;;;;;;38.45;19.33;;;-2.60;99.90;;;;;;5099859;27;20023;-79
2022/03/04 07:11:14;;;;;;;41.40;19.30;;;-2.50;99.90;;;;;;5079219;27;20119;-80
2022/03/04 07:13:40;;;;;;;42.38;20.15;;;-2.50;99.90;;;;;;5084098;27;20038;-80
2022/03/04 07:16:05;;;;;;;38.78;19.00;;;-2.50;99.90;;;;;;5079477;28;20048;-80
2022/03/04 07:18:31;;;;;;;45.20;21.38;;;-2.50;99.90;;;;;;5080723;27;20490;-79
2022/03/04 07:20:58;;;;;;;41.42;20.70;;;-2.50;99.90;;;;;;5078509;28;20032;-79
2022/03/04 07:23:24;;;;;;;39.42;20.60;;;-2.40;99.90;;;;;;5089615;28;20099;-79
2022/03/04 07:25:49;;;;;;;44.88;20.48;;;-2.40;99.90;;;;;;5083505;27;20110;-80
2022/03/04 07:28:15;;;;;;;45.20;20.58;;;-2.20;99.90;;;;;;5072601;27;20459;-79
2022/03/04 07:30:41;;;;;;;43.25;22.15;;;-2.10;99.90;;;;;;5082692;27;20529;-80
2022/03/04 07:33:08;;;;;;;39.67;19.13;;;-2.10;99.90;;;;;;5092943;28;20027;-79
2022/03/04 07:35:34;;;;;;;41.92;21.48;;;-1.90;99.90;;;;;;5080651;27;20032;-80
2022/03/04 07:37:59;;;;;;;42.70;21.30;;;-2.00;99.90;;;;;;5069056;27;20081;-81
2022/03/04 07:40:25;;;;;;;40.70;21.88;;;-2.00;99.90;;;;;;5081828;28;20039;-80
2022/03/04 07:42:50;;;;;;;42.22;22.00;;;-1.70;99.90;;;;;;5071731;28;20426;-80
2022/03/04 07:45:16;;;;;;;39.30;21.38;;;-1.80;99.90;;;;;;5085289;28;20035;-79
2022/03/04 07:47:42;;;;;;;45.83;20.90;;;-1.70;99.90;;;;;;5069651;28;20030;-80
2022/03/04 07:50:10;;;;;;;41.60;20.15;;;-1.70;99.90;;;;;;5076938;27;20036;-80
2022/03/04 07:52:36;;;;;;;31.52;14.55;;;-1.70;99.90;;;;;;5070750;28;20435;-79
2022/03/04 07:55:02;;;;;;;43.03;22.92;;;-1.40;99.90;;;;;;5083645;28;20123;-80
2022/03/04 07:57:28;;;;;;;49.20;21.15;;;-1.00;99.90;;;;;;5085013;28;20039;-80
2022/03/04 07:59:55;;;;;;;39.00;19.52;;;-0.90;99.90;;;;;;5070146;28;20436;-80
2022/03/04 08:02:21;;;;;;;39.95;20.83;;;-0.70;99.90;;;;;;5086516;28;20031;-80
2022/03/04 08:04:46;;;;;;;33.50;16.55;;;-0.90;99.90;;;;;;5079601;28;20032;-80
2022/03/04 08:07:13;;;;;;;39.63;20.25;;;-0.70;99.90;;;;;;5083528;27;20043;-80
2022/03/04 08:09:39;;;;;;;41.45;20.02;;;-0.70;99.90;;;;;;5085649;27;20623;-80
2022/03/04 08:12:07;;;;;;;36.85;18.65;;;-0.60;99.90;;;;;;5084048;27;20066;-79
2022/03/04 08:14:32;;;;;;;45.75;19.02;;;-0.30;99.90;;;;;;5071959;28;20040;-79
2022/03/04 08:16:58;;;;;;;37.40;19.48;;;-0.20;99.90;;;;;;5082136;27;20402;-79
2022/03/04 08:19:24;;;;;;;37.45;17.83;;;0.00;99.90;;;;;;5100110;28;20036;-79
2022/03/04 08:21:50;;;;;;;37.83;17.75;;;0.30;99.90;;;;;;5084980;28;20032;-80
2022/03/04 08:24:16;;;;;;;37.75;18.30;;;0.30;99.90;;;;;;5084404;27;20085;-79
2022/03/04 08:26:41;;;;;;;33.15;16.98;;;0.30;99.90;;;;;;5071020;27;20028;-80
2022/03/04 08:29:10;;;;;;;39.80;20.75;;;0.40;99.90;;;;;;5080957;27;20027;-79
2022/03/04 08:31:36;;;;;;;42.47;19.88;;;0.70;99.90;;;;;;5081634;27;20031;-81
2022/03/04 08:34:01;;;;;;;33.80;16.58;;;0.70;99.90;;;;;;5084166;27;20456;-79
2022/03/04 08:36:32;;;;;;;36.65;17.38;;;0.60;99.90;;;;;;5068023;28;20030;-80
2022/03/04 08:38:59;;;;;;;36.63;18.90;;;0.80;99.90;;;;;;5071501;28;20039;-79
2022/03/04 08:41:25;;;;;;;41.65;21.65;;;0.90;99.90;;;;;;5077781;28;20051;-79
2022/03/04 08:43:51;;;;;;;39.13;19.00;;;0.70;99.90;;;;;;5077109;27;20062;-79
2022/03/04 08:46:17;;;;;;;32.70;17.83;;;1.10;99.90;;;;;;5078332;28;20566;-80
2022/03/04 08:48:43;;;;;;;35.90;19.27;;;1.50;99.90;;;;;;5075654;28;20031;-80
2022/03/04 08:51:09;;;;;;;32.50;18.45;;;1.50;99.90;;;;;;5078293;27;20070;-79
2022/03/04 08:53:34;;;;;;;32.28;16.05;;;0.80;99.90;;;;;;5065981;28;20444;-80
2022/03/04 08:56:00;;;;;;;35.90;19.23;;;1.90;99.90;;;;;;5092119;27;20052;-80
2022/03/04 08:58:26;;;;;;;33.88;18.35;;;2.10;99.90;;;;;;5083379;28;20114;-79
2022/03/04 09:00:51;;;;;;;32.35;15.95;;;2.30;99.90;;;;;;5083890;28;20026;-80
2022/03/04 09:03:17;;;;;;;34.47;18.08;;;2.20;99.90;;;;;;5093587;28;20426;-80
2022/03/04 09:05:42;;;;;;;34.88;17.20;;;2.60;99.90;;;;;;5081553;28;20030;-80
2022/03/04 09:08:08;;;;;;;30.60;16.65;;;2.70;99.90;;;;;;5083330;27;20032;-79
2022/03/04 09:10:33;;;;;;;33.88;16.98;;;2.50;99.90;;;;;;5084052;28;20061;-79
2022/03/04 09:12:59;;;;;;;32.80;17.90;;;2.60;99.90;;;;;;5079870;28;20062;-79
2022/03/04 09:15:25;;;;;;;24.83;14.77;;;2.80;99.90;;;;;;5092052;28;20380;-80
2022/03/04 09:17:50;;;;;;;29.42;15.30;;;3.30;99.90;;;;;;5080697;27;20039;-80
2022/03/04 09:20:19;;;;;;;31.23;16.30;;;3.70;99.90;;;;;;5061413;28;20039;-80
2022/03/04 09:22:45;;;;;;;32.65;16.88;;;4.00;99.90;;;;;;5070620;28;20065;-80
2022/03/04 09:25:11;;;;;;;28.00;15.43;;;3.40;99.90;;;;;;5085346;27;20526;-80
2022/03/04 09:27:36;;;;;;;28.20;16.75;;;3.60;99.90;;;;;;5086964;28;20027;-79
2022/03/04 09:30:02;;;;;;;30.20;16.13;;;3.60;99.90;;;;;;5095649;27;20147;-80
2022/03/04 09:32:28;;;;;;;35.20;17.52;;;3.50;99.90;;;;;;5081814;28;20055;-80
2022/03/04 09:34:53;;;;;;;31.92;15.95;;;3.90;99.90;;;;;;5096467;27;20058;-79
2022/03/04 09:37:19;;;;;;;29.27;16.52;;;4.60;99.90;;;;;;5094565;27;20997;-79
2022/03/04 09:39:44;;;;;;;28.58;13.98;;;4.20;99.90;;;;;;5084403;27;20508;-79
2022/03/04 09:42:10;;;;;;;24.88;14.45;;;4.90;99.90;;;;;;5081806;28;20495;-79
2022/03/04 09:44:36;;;;;;;30.77;15.98;;;5.70;99.90;;;;;;5072330;28;20028;-80
2022/03/04 09:47:01;;;;;;;26.63;14.40;;;6.10;99.90;;;;;;5077952;28;20055;-80
2022/03/04 09:49:30;;;;;;;28.42;16.33;;;6.00;99.90;;;;;;5084311;28;20106;-79
2022/03/04 09:51:57;;;;;;;27.08;14.50;;;5.90;99.90;;;;;;5063761;28;20031;-80
2022/03/04 09:54:26;;;;;;;26.15;14.48;;;6.00;99.90;;;;;;5064187;27;20492;-79
2022/03/04 09:56:52;;;;;;;29.65;14.65;;;6.20;99.90;;;;;;5095096;28;20063;-79
2022/03/04 09:59:17;;;;;;;25.50;14.40;;;6.50;99.90;;;;;;5077778;27;20044;-79
2022/03/04 10:01:43;;;;;;;25.55;14.02;;;7.10;99.90;;;;;;5079944;28;20029;-80
2022/03/04 10:04:09;;;;;;;32.65;17.50;;;7.40;99.90;;;;;;5095468;27;20079;-79
2022/03/04 10:06:37;;;;;;;23.42;13.48;;;7.40;99.90;;;;;;5063570;28;20060;-80
2022/03/04 10:09:02;;;;;;;23.70;13.95;;;6.60;99.90;;;;;;5058499;28;20072;-79
2022/03/04 10:11:32;;;;;;;24.90;14.85;;;7.30;99.90;;;;;;5079515;28;20027;-79
2022/03/04 10:14:02;;;;;;;23.38;14.35;;;7.80;99.90;;;;;;5068490;28;20040;-79
2022/03/04 10:16:38;;;;;;;25.45;15.68;;;8.10;99.90;;;;;;5077228;28;20457;-80
2022/03/04 10:19:07;;;;;;;;;;;8.20;99.90;;;;;;5071335;28;20044;-79
2022/03/04 10:21:55;;;;;;;28.00;15.52;;;8.10;99.90;;;;;;5101228;28;19920;-79
2022/03/04 10:24:28;;;;;;;29.75;15.20;;;7.80;99.90;;;;;;5094090;28;20030;-79
2022/03/04 10:27:01;;;;;;;27.85;13.93;;;8.40;99.90;;;;;;5095385;28;20085;-80
2022/03/04 10:29:35;;;;;;;26.80;15.10;;;8.50;99.90;;;;;;5102634;27;20036;-80
2022/03/04 10:32:19;;;;;;;29.60;16.10;;;8.40;99.90;;;;;;5085274;28;20103;-79
2022/03/04 10:35:04;;;;;;;25.45;13.43;;;7.80;99.90;;;;;;5086128;28;20425;-78
2022/03/04 10:37:54;;;;;;;29.45;16.15;;;7.50;99.90;;;;;;4726500;27;10000675;-78
2022/03/04 10:40:25;;;;;;;24.35;14.75;;;7.20;99.90;;;;;;5060536;28;20074;-79
2022/03/04 10:43:05;;;;;;;24.85;15.40;;;8.00;99.90;;;;;;5092049;28;20456;-78
2022/03/04 10:45:34;;;;;;;22.38;12.70;;;9.00;99.90;;;;;;5071323;28;20035;-79
2022/03/04 10:48:10;;;;;;;28.30;16.73;;;9.80;99.90;;;;;;5078924;27;20036;-79
2022/03/04 10:50:49;;;;;;;22.95;12.82;;;9.70;99.90;;;;;;5080455;28;20503;-78
2022/03/04 10:53:18;;;;;;;25.63;15.75;;;9.10;99.90;;;;;;5082087;28;20063;-78
2022/03/04 10:55:45;;;;;;;20.90;12.07;;;9.30;99.90;;;;;;5070236;28;20119;-80
2022/03/04 10:58:18;;;;;;;28.02;15.52;;;9.20;99.90;;;;;;5077732;28;20135;-79
2022/03/04 11:00:46;;;;;;;24.73;14.52;;;9.10;99.40;;;;;;5069240;28;20085;-80
2022/03/04 11:03:18;;;;;;;25.65;16.15;;;9.20;99.90;;;;;;5084833;27;20380;-79
2022/03/04 11:05:44;;;;;;;26.65;16.27;;;9.50;99.60;;;;;;5102030;27;20032;-79
2022/03/04 11:08:10;;;;;;;28.20;17.13;;;9.30;99.90;;;;;;5081435;28;20488;-81
2022/03/04 11:10:35;;;;;;;26.20;15.55;;;10.10;99.40;;;;;;5070387;28;20104;-80
2022/03/04 11:13:05;;;;;;;25.58;15.32;;;8.60;99.90;;;;;;5077943;27;20081;-80
2022/03/04 11:15:31;;;;;;;26.80;16.38;;;8.70;99.90;;;;;;5096222;28;20387;-80
2022/03/04 11:17:56;;;;;;;27.23;16.67;;;8.20;99.90;;;;;;5079030;28;20032;-80
2022/03/04 11:20:22;;;;;;;24.33;15.52;;;7.20;99.90;;;;;;5063817;27;20051;-80
2022/03/04 11:22:50;;;;;;;29.33;15.73;;;8.10;99.90;;;;;;5080440;27;20024;-80
2022/03/04 11:25:16;;;;;;;26.75;16.23;;;9.50;99.90;;;;;;5093923;28;20627;-79
2022/03/04 11:27:43;;;;;;;24.55;14.32;;;10.20;99.90;;;;;;5069870;28;20044;-79
2022/03/04 11:30:31;;;;;;;21.42;13.30;;;11.30;99.60;;;;;;5080880;28;20032;-80
2022/03/04 11:33:03;;;;;;;24.63;13.57;;;10.40;89.30;;;;;;5078749;27;20047;-80
2022/03/04 11:36:06;;;;;;;21.10;14.43;;;9.30;99.90;;;;;;5095359;27;20036;-80
2022/03/04 11:38:46;;;;;;;25.58;12.88;;;9.30;95.00;;;;;;5079722;28;20031;-80
2022/03/04 11:41:35;;;;;;;23.38;12.98;;;10.70;99.90;;;;;;5091404;28;20035;-79
2022/03/04 11:44:12;;;;;;;19.40;12.02;;;12.20;94.80;;;;;;5074893;28;20180;-78
2022/03/04 11:46:48;;;;;;;24.38;11.25;;;12.60;95.30;;;;;;5095065;28;20020;-79
2022/03/04 11:49:38;;;;;;;19.08;12.13;;;13.30;91.00;;;;;;5080845;27;20031;-79
2022/03/04 11:52:15;;;;;;;28.20;14.43;;;13.40;91.40;;;;;;5101676;28;20059;-79
2022/03/04 11:54:45;;;;;;;28.98;15.38;;;13.80;85.80;;;;;;5095826;28;20028;-79
2022/03/04 11:57:27;;;;;;;24.25;15.38;;;13.20;82.20;;;;;;5078620;28;20069;-79
2022/03/04 11:59:55;;;;;;;24.33;14.13;;;13.10;79.50;;;;;;5082393;27;20499;-78
2022/03/04 12:02:21;;;;;;;22.48;13.13;;;13.30;80.90;;;;;;5098272;27;20046;-79
2022/03/04 12:04:49;;;;;;;19.77;13.52;;;13.30;86.40;;;;;;5071454;27;20035;-78
2022/03/04 12:07:15;;;;;;;27.33;14.70;;;14.40;80.00;;;;;;5079196;27;20032;-79
2022/03/04 12:09:48;;;;;;;22.60;15.65;;;13.30;80.30;;;;;;5096588;28;20051;-79
2022/03/04 12:12:18;;;;;;;26.30;15.77;;;11.70;93.10;;;;;;5075845;28;20604;-79
2022/03/04 12:14:47;;;;;;;25.13;15.13;;;10.70;93.20;;;;;;5084066;27;20038;-79
2022/03/04 12:17:13;;;;;;;22.27;14.45;;;10.00;84.20;;;;;;5080641;27;20036;-79
2022/03/04 12:19:39;;;;;;;17.38;11.70;;;12.10;90.10;;;;;;5094649;28;20044;-79
2022/03/04 12:22:05;;;;;;;27.52;14.10;;;14.60;74.80;;;;;;5090579;28;20031;-80
2022/03/04 12:24:35;;;;;;;24.75;13.98;;;14.70;73.90;;;;;;5097313;27;20038;-79
2022/03/04 12:27:01;;;;;;;23.05;13.93;;;12.30;81.60;;;;;;5093719;28;20028;-79
2022/03/04 12:29:43;;;;;;;26.20;15.52;;;11.70;79.30;;;;;;5079015;27;20027;-80